Oaktown, Indiana
Current Conditions -  °F | °C
As of 3:29 AM on Sunday 26 Oct 2014 (Local Time) from KLWV Reporting Station
Haze Haze  
Wind Chill: 51°   Ceiling: Unl
Heat Index: 51°   Visibility: 1.7mi
Dew Point: 46°   Wind: 3mph
Humidity: 83%   Direction: 300°WNW
Pressure: 30.01"   Gusts: NA
Location:  38.87°N, 87.44°W
Report Text: KLWV 260829Z AUTO 30003KT 1 3/4SM HZ CLR 11/08 A3001 RMK AO2 T01060078
Loading
Personal Weather Stations






























Interactive Weather Map
Tropical Storm Tracking
New forecast layout! Learn more

10-Day Weather Forecast

Advertisements
Track Severe Weather on mobile